Time;durP1;ratioP1;P1;durP2;ratioP2;P2;SDS_P1;SDS_P2;PMS_P1;PMS_P2;Temp;Humidity;BMP_temperature;BMP_pressure;BME280_temperature;BME280_humidity;BME280_pressure;Samples;Min_cycle;Max_cycle;Signal;HPM_P1;HPM_P2
2022/07/06 00:00:51;;;;;;;2.83;2.73;;;17.20;99.90;;;;;;5075775;28;20225;-49
2022/07/06 00:03:18;;;;;;;2.97;2.80;;;17.10;99.90;;;;;;5073850;28;20278;-48
2022/07/06 00:05:45;;;;;;;3.20;3.10;;;17.00;99.90;;;;;;5075075;28;20282;-48
2022/07/06 00:08:12;;;;;;;2.90;2.90;;;17.00;99.90;;;;;;5074155;28;20257;-49
2022/07/06 00:10:41;;;;;;;2.90;2.70;;;16.90;99.90;;;;;;5073243;28;20206;-48
2022/07/06 00:13:08;;;;;;;2.90;2.80;;;16.80;99.90;;;;;;5071468;28;20281;-48
2022/07/06 00:15:34;;;;;;;3.50;3.40;;;16.80;99.90;;;;;;5074817;28;20704;-48
2022/07/06 00:18:01;;;;;;;2.77;2.57;;;16.80;99.90;;;;;;5073187;28;20205;-49
2022/07/06 00:20:28;;;;;;;3.70;3.60;;;16.80;99.90;;;;;;5074040;28;20262;-48
2022/07/06 00:22:55;;;;;;;3.37;3.27;;;16.80;99.90;;;;;;5073530;28;20571;-48
2022/07/06 00:25:22;;;;;;;2.90;2.80;;;16.70;99.90;;;;;;5071694;28;20568;-49
2022/07/06 00:27:51;;;;;;;2.40;2.30;;;16.70;99.90;;;;;;5073657;28;20221;-49
2022/07/06 00:30:18;;;;;;;2.97;2.93;;;16.80;99.90;;;;;;5073574;28;20256;-48
2022/07/06 00:32:44;;;;;;;2.97;2.77;;;16.80;99.90;;;;;;5064223;28;20247;-48
2022/07/06 00:35:11;;;;;;;2.53;2.30;;;16.90;99.90;;;;;;5064821;28;20657;-48
2022/07/06 00:37:38;;;;;;;3.57;3.30;;;16.90;99.90;;;;;;5071825;28;20202;-49
2022/07/06 00:40:07;;;;;;;2.90;2.80;;;16.90;99.90;;;;;;5072688;28;20361;-48
2022/07/06 00:42:41;;;;;;;2.50;2.40;;;16.80;99.90;;;;;;5071981;28;20675;-48
2022/07/06 00:45:12;;;;;;;2.70;2.60;;;16.70;99.90;;;;;;5071277;28;20252;-49
2022/07/06 00:47:39;;;;;;;2.17;2.17;;;16.70;99.90;;;;;;5067701;28;20209;-48
2022/07/06 00:50:20;;;;;;;2.33;2.33;;;16.70;99.90;;;;;;5072194;28;20217;-48
2022/07/06 00:52:50;;;;;;;2.90;2.80;;;16.70;99.90;;;;;;5072511;28;20624;-48
2022/07/06 00:55:19;;;;;;;2.57;2.47;;;16.60;99.90;;;;;;5067827;28;20221;-48
2022/07/06 00:57:47;;;;;;;2.87;2.77;;;16.60;99.90;;;;;;5070238;28;20625;-49
2022/07/06 01:00:18;;;;;;;2.67;2.50;;;16.60;99.90;;;;;;5069102;28;20190;-49
2022/07/06 01:02:45;;;;;;;2.43;2.33;;;16.60;99.90;;;;;;5068135;28;20201;-48
2022/07/06 01:05:14;;;;;;;2.60;2.50;;;16.60;99.90;;;;;;5104164;22;20697;-55
2022/07/06 01:07:43;;;;;;;2.40;2.30;;;16.50;99.90;;;;;;5092661;28;20200;-55
2022/07/06 01:10:13;;;;;;;2.37;2.27;;;16.60;99.90;;;;;;5091381;28;20660;-55
2022/07/06 01:12:40;;;;;;;1.80;1.77;;;16.60;99.90;;;;;;5089918;28;20204;-55
2022/07/06 01:15:10;;;;;;;2.40;2.30;;;16.60;99.90;;;;;;5091531;28;20216;-55
2022/07/06 01:17:40;;;;;;;3.33;2.60;;;16.60;99.90;;;;;;5092364;28;20254;-55
2022/07/06 01:20:11;;;;;;;2.13;2.03;;;16.50;99.90;;;;;;5092148;28;20193;-55
2022/07/06 01:22:38;;;;;;;2.60;2.43;;;16.40;99.90;;;;;;5091061;28;20600;-55
2022/07/06 01:25:06;;;;;;;2.60;2.40;;;16.40;99.90;;;;;;5091789;28;20220;-55
2022/07/06 01:27:36;;;;;;;2.90;2.73;;;16.40;99.90;;;;;;5090962;28;20759;-55
2022/07/06 01:30:04;;;;;;;3.13;2.93;;;16.40;99.90;;;;;;5091186;28;20277;-55
2022/07/06 01:32:31;;;;;;;2.67;2.67;;;16.40;99.90;;;;;;5078800;28;20610;-55
2022/07/06 01:34:58;;;;;;;2.33;2.13;;;16.40;99.90;;;;;;5091322;28;20280;-55
2022/07/06 01:37:26;;;;;;;2.60;2.60;;;16.40;99.90;;;;;;5091091;28;20200;-55
2022/07/06 01:39:53;;;;;;;2.43;2.43;;;16.30;99.90;;;;;;5091037;28;20192;-55
2022/07/06 01:42:20;;;;;;;3.40;3.17;;;16.30;99.90;;;;;;5090645;28;20239;-55
2022/07/06 01:44:47;;;;;;;2.60;2.60;;;16.30;99.90;;;;;;5091997;28;20216;-55
2022/07/06 01:47:14;;;;;;;3.00;2.83;;;16.30;99.90;;;;;;5091206;28;20250;-55
2022/07/06 01:49:41;;;;;;;3.13;2.90;;;16.20;99.90;;;;;;5091586;28;20295;-55
2022/07/06 01:52:08;;;;;;;2.67;2.03;;;16.20;99.90;;;;;;5088625;28;20193;-55
2022/07/06 01:54:39;;;;;;;3.20;3.10;;;16.20;99.90;;;;;;5090719;28;20710;-55
2022/07/06 01:57:06;;;;;;;3.23;3.13;;;16.20;99.90;;;;;;5091967;28;20207;-55
2022/07/06 01:59:33;;;;;;;3.47;3.27;;;16.20;99.90;;;;;;5091284;28;20551;-55
2022/07/06 02:02:00;;;;;;;4.30;4.00;;;16.20;99.90;;;;;;5090444;28;20254;-55
2022/07/06 02:04:28;;;;;;;3.13;3.03;;;16.10;99.90;;;;;;5088190;28;20224;-55
2022/07/06 02:06:55;;;;;;;3.37;3.20;;;16.10;99.90;;;;;;5090776;28;20243;-56
2022/07/06 02:09:22;;;;;;;4.63;4.43;;;16.10;99.90;;;;;;5091625;28;20254;-55
2022/07/06 02:11:50;;;;;;;4.23;4.13;;;16.00;99.90;;;;;;5089845;28;20258;-55
2022/07/06 02:14:17;;;;;;;3.87;3.57;;;16.00;99.90;;;;;;5090660;28;20248;-55
2022/07/06 02:16:44;;;;;;;4.70;4.27;;;16.00;99.90;;;;;;5091493;28;20246;-55
2022/07/06 02:19:11;;;;;;;3.63;3.53;;;16.00;99.90;;;;;;5085513;28;20220;-55
2022/07/06 02:21:38;;;;;;;3.60;3.50;;;16.00;99.90;;;;;;5090859;28;20628;-55
2022/07/06 02:24:06;;;;;;;5.43;4.50;;;16.00;99.90;;;;;;5090890;28;20255;-55
2022/07/06 02:26:33;;;;;;;4.70;4.40;;;16.00;99.90;;;;;;5091564;28;20257;-55
2022/07/06 02:29:01;;;;;;;3.90;3.80;;;16.00;99.90;;;;;;5090357;28;20216;-55
2022/07/06 02:31:28;;;;;;;4.13;3.80;;;16.00;99.90;;;;;;5083811;28;20239;-55
2022/07/06 02:33:55;;;;;;;4.00;3.90;;;16.10;99.90;;;;;;5089394;28;20253;-55
2022/07/06 02:36:22;;;;;;;4.13;3.83;;;16.10;99.90;;;;;;5087136;28;21149;-55
2022/07/06 02:38:49;;;;;;;3.37;3.17;;;16.10;99.90;;;;;;5090492;28;20291;-55
2022/07/06 02:41:16;;;;;;;3.50;3.23;;;16.10;99.90;;;;;;5091052;28;20205;-55
2022/07/06 02:43:45;;;;;;;3.70;3.57;;;16.00;99.90;;;;;;5087401;28;20260;-54
2022/07/06 02:46:14;;;;;;;3.53;3.33;;;16.00;99.90;;;;;;5094648;28;20204;-55
2022/07/06 02:48:41;;;;;;;3.70;3.50;;;16.00;99.90;;;;;;5088825;28;20203;-56
2022/07/06 02:51:08;;;;;;;3.77;3.67;;;15.90;99.90;;;;;;5089807;28;20231;-55
2022/07/06 02:53:34;;;;;;;4.57;4.30;;;15.90;99.90;;;;;;5091456;28;20204;-55
2022/07/06 02:56:02;;;;;;;4.40;4.17;;;16.00;99.90;;;;;;5090346;28;20220;-55
2022/07/06 02:58:31;;;;;;;3.83;3.40;;;16.00;99.90;;;;;;5091184;28;20306;-55
2022/07/06 03:00:58;;;;;;;3.90;3.70;;;15.90;99.90;;;;;;5090288;28;20294;-55
2022/07/06 03:03:26;;;;;;;3.63;3.43;;;16.00;99.90;;;;;;5088602;28;20200;-55
2022/07/06 03:05:54;;;;;;;4.00;3.83;;;16.00;99.90;;;;;;5089323;28;20232;-55
2022/07/06 03:08:21;;;;;;;3.17;3.07;;;16.10;99.90;;;;;;5089339;28;20273;-55
2022/07/06 03:10:47;;;;;;;4.03;3.83;;;16.10;99.90;;;;;;5092794;28;20208;-55
2022/07/06 03:13:14;;;;;;;4.27;4.07;;;16.10;99.90;;;;;;5093375;28;20686;-55
2022/07/06 03:15:41;;;;;;;4.10;4.00;;;16.20;99.90;;;;;;5095009;28;20255;-54
2022/07/06 03:18:08;;;;;;;4.43;4.03;;;16.20;99.90;;;;;;5085207;28;20254;-55
2022/07/06 03:20:37;;;;;;;3.83;3.70;;;16.20;99.90;;;;;;5088045;28;20763;-55
2022/07/06 03:23:04;;;;;;;4.97;4.57;;;16.30;99.90;;;;;;5087734;28;20243;-55
2022/07/06 03:25:32;;;;;;;3.97;3.73;;;16.30;99.90;;;;;;5082132;28;20330;-55
2022/07/06 03:27:59;;;;;;;4.57;4.20;;;16.30;99.90;;;;;;5090709;28;20197;-55
2022/07/06 03:30:26;;;;;;;4.67;4.47;;;16.20;99.90;;;;;;5090478;28;20273;-55
2022/07/06 03:32:53;;;;;;;4.27;4.03;;;16.20;99.90;;;;;;5077285;28;20266;-55
2022/07/06 03:35:20;;;;;;;4.20;3.90;;;16.20;99.90;;;;;;5089176;28;20315;-55
2022/07/06 03:37:49;;;;;;;4.00;3.90;;;16.20;99.90;;;;;;5088519;28;20207;-56
2022/07/06 03:40:16;;;;;;;3.57;3.37;;;16.20;99.90;;;;;;5080869;28;20659;-56
2022/07/06 03:42:43;;;;;;;3.80;3.60;;;16.20;99.90;;;;;;5085076;28;20238;-54
2022/07/06 03:45:11;;;;;;;4.57;4.40;;;16.10;99.90;;;;;;5092810;28;20226;-55
2022/07/06 03:47:38;;;;;;;3.50;3.40;;;16.00;99.90;;;;;;5082368;28;20236;-55
2022/07/06 03:50:06;;;;;;;4.13;3.93;;;16.00;99.90;;;;;;5090305;28;20310;-55
2022/07/06 03:52:34;;;;;;;4.47;4.23;;;16.00;99.90;;;;;;5085180;28;20638;-55
2022/07/06 03:55:02;;;;;;;3.90;3.70;;;15.90;99.90;;;;;;5091179;28;20216;-55
2022/07/06 03:57:29;;;;;;;3.90;3.70;;;15.90;99.90;;;;;;5087516;28;20250;-55
2022/07/06 03:59:56;;;;;;;4.07;3.90;;;15.80;99.90;;;;;;5083808;28;20243;-55
2022/07/06 04:02:23;;;;;;;4.40;4.13;;;15.80;99.90;;;;;;5082505;28;20197;-55
2022/07/06 04:04:50;;;;;;;3.73;3.50;;;15.80;99.90;;;;;;5085376;28;20267;-55
2022/07/06 04:07:18;;;;;;;5.27;4.87;;;15.80;99.90;;;;;;5087595;28;20222;-55
2022/07/06 04:09:45;;;;;;;4.27;4.07;;;15.80;99.90;;;;;;5090365;28;20361;-56
2022/07/06 04:12:13;;;;;;;4.10;3.80;;;15.80;99.90;;;;;;5083484;28;20274;-55
2022/07/06 04:14:40;;;;;;;4.20;4.10;;;15.70;99.90;;;;;;5086011;28;20455;-55
2022/07/06 04:19:48;;;;;;;5.20;4.90;;;15.80;99.90;;;;;;5078019;28;20269;-55
2022/07/06 04:22:15;;;;;;;4.63;4.33;;;15.80;99.90;;;;;;5072881;28;20230;-55
2022/07/06 04:24:42;;;;;;;5.13;4.73;;;15.90;99.90;;;;;;5072188;28;20239;-55
2022/07/06 04:27:09;;;;;;;3.63;3.53;;;15.90;99.90;;;;;;5089907;28;20577;-55
2022/07/06 04:29:37;;;;;;;5.03;4.83;;;16.00;99.90;;;;;;5092334;28;20224;-55
2022/07/06 04:32:05;;;;;;;4.97;4.77;;;16.00;99.90;;;;;;5087101;28;20208;-55
2022/07/06 04:34:33;;;;;;;4.30;4.20;;;16.10;99.90;;;;;;5084947;28;20532;-55
2022/07/06 04:37:00;;;;;;;5.50;5.20;;;16.10;99.90;;;;;;5089884;28;20230;-54
2022/07/06 04:39:27;;;;;;;5.60;5.33;;;16.20;99.90;;;;;;5093176;28;20200;-55
2022/07/06 04:41:54;;;;;;;5.83;5.63;;;16.30;99.90;;;;;;5089549;28;20294;-55
2022/07/06 04:44:21;;;;;;;6.67;6.23;;;16.40;99.90;;;;;;5091820;28;21403;-54
2022/07/06 04:46:49;;;;;;;5.63;5.33;;;16.50;99.90;;;;;;5089905;28;20197;-55
2022/07/06 04:49:16;;;;;;;5.80;5.50;;;16.60;99.90;;;;;;5092016;28;20192;-55
2022/07/06 04:51:43;;;;;;;6.33;6.03;;;16.70;99.90;;;;;;5090255;28;20223;-55
2022/07/06 04:54:10;;;;;;;7.33;7.03;;;16.80;99.90;;;;;;5084685;28;20217;-54
2022/07/06 04:56:37;;;;;;;8.57;7.80;;;16.90;99.90;;;;;;5092574;28;20204;-55
2022/07/06 04:59:04;;;;;;;6.90;6.47;;;16.90;99.90;;;;;;5090961;28;20585;-55
2022/07/06 05:01:31;;;;;;;6.70;6.47;;;17.10;99.90;;;;;;5086975;28;20201;-54
2022/07/06 05:04:00;;;;;;;5.90;5.60;;;17.30;99.90;;;;;;5091098;28;20208;-55
2022/07/06 05:06:27;;;;;;;6.57;6.17;;;17.50;99.90;;;;;;5089560;28;20212;-55
2022/07/06 05:08:54;;;;;;;6.07;5.70;;;17.80;99.90;;;;;;5092825;28;20238;-54
2022/07/06 05:11:21;;;;;;;5.87;5.53;;;18.10;99.90;;;;;;5087797;28;20221;-55
2022/07/06 05:13:48;;;;;;;5.60;5.40;;;18.60;99.90;;;;;;5091616;28;20246;-55
2022/07/06 05:16:15;;;;;;;5.50;5.10;;;19.10;99.90;;;;;;5090270;28;20739;-55
2022/07/06 05:18:42;;;;;;;4.27;4.07;;;19.70;99.90;;;;;;5090464;28;20193;-55
2022/07/06 05:21:10;;;;;;;4.07;3.87;;;20.50;99.90;;;;;;5089066;28;20547;-55
2022/07/06 05:23:37;;;;;;;4.33;4.00;;;21.20;99.90;;;;;;5092184;28;20204;-55
2022/07/06 05:26:04;;;;;;;4.00;3.50;;;21.90;99.90;;;;;;5091911;28;20220;-55
2022/07/06 05:28:31;;;;;;;2.70;2.50;;;22.60;99.90;;;;;;5090493;28;20549;-55
2022/07/06 05:30:58;;;;;;;2.47;2.47;;;23.40;99.90;;;;;;5087079;28;20216;-55
2022/07/06 05:33:29;;;;;;;3.33;3.13;;;24.20;99.90;;;;;;5090480;28;20195;-55
2022/07/06 05:35:56;;;;;;;3.00;2.90;;;24.90;99.90;;;;;;5092174;28;20224;-55
2022/07/06 05:38:24;;;;;;;3.13;3.10;;;25.20;99.90;;;;;;5091158;28;20592;-56
2022/07/06 05:40:51;;;;;;;3.47;3.30;;;25.70;99.90;;;;;;5087983;28;20200;-56
2022/07/06 05:43:19;;;;;;;2.77;2.67;;;25.70;99.90;;;;;;5088962;28;20200;-56
2022/07/06 05:45:45;;;;;;;2.63;2.43;;;25.90;99.90;;;;;;5092687;28;20730;-55
2022/07/06 05:50:57;;;;;;;2.37;2.37;;;26.40;99.90;;;;;;5084968;28;20222;-55
2022/07/06 05:53:25;;;;;;;3.63;2.40;;;26.30;99.90;;;;;;5088730;28;20197;-55
2022/07/06 05:55:52;;;;;;;3.40;3.20;;;26.80;99.90;;;;;;5091828;28;20220;-56
2022/07/06 05:58:19;;;;;;;2.45;2.33;;;27.00;99.90;;;;;;5092076;28;20269;-56
2022/07/06 06:00:46;;;;;;;4.83;2.83;;;27.20;99.90;;;;;;5085269;28;20200;-56
2022/07/06 06:03:13;;;;;;;3.53;2.90;;;27.30;99.90;;;;;;5089998;28;20546;-56
2022/07/06 06:05:40;;;;;;;3.20;3.00;;;27.60;99.90;;;;;;5084111;28;20285;-57
2022/07/06 06:08:07;;;;;;;3.63;3.30;;;27.30;99.90;;;;;;5091259;28;20206;-56
2022/07/06 06:10:36;;;;;;;3.03;2.85;;;27.50;99.90;;;;;;5088256;28;20231;-56
2022/07/06 06:13:03;;;;;;;2.72;2.63;;;27.20;99.90;;;;;;5080217;28;20207;-56
2022/07/06 06:15:30;;;;;;;2.92;2.83;;;27.70;99.90;;;;;;5091125;28;20216;-56
2022/07/06 06:17:57;;;;;;;3.28;3.08;;;28.20;99.90;;;;;;5088083;28;20266;-56
2022/07/06 06:20:24;;;;;;;2.75;2.55;;;27.50;99.90;;;;;;5085413;28;20220;-56
2022/07/06 06:22:52;;;;;;;3.47;3.17;;;27.10;99.90;;;;;;5089230;28;20209;-56
2022/07/06 06:25:21;;;;;;;2.60;2.42;;;26.40;99.90;;;;;;5090254;28;20710;-56
2022/07/06 06:27:49;;;;;;;4.75;2.75;;;26.60;99.90;;;;;;5089181;28;20204;-56
2022/07/06 06:30:16;;;;;;;3.00;2.85;;;26.60;99.90;;;;;;5091046;28;20216;-56
2022/07/06 06:32:43;;;;;;;1.95;1.85;;;26.50;99.90;;;;;;5085855;28;20203;-57
2022/07/06 06:35:10;;;;;;;2.33;2.30;;;27.10;99.90;;;;;;5087955;28;20212;-57
2022/07/06 06:37:37;;;;;;;2.25;2.22;;;28.20;99.90;;;;;;5088571;28;20196;-56
2022/07/06 06:40:06;;;;;;;2.47;2.33;;;28.50;99.90;;;;;;5083609;28;20212;-56
2022/07/06 06:42:36;;;;;;;3.33;3.13;;;29.10;99.90;;;;;;5086812;28;20197;-56
2022/07/06 06:45:05;;;;;;;2.35;2.28;;;29.20;99.90;;;;;;5084194;28;20708;-56
2022/07/06 06:47:32;;;;;;;3.05;2.95;;;29.80;99.90;;;;;;5081553;28;20197;-57
2022/07/06 06:49:59;;;;;;;2.58;2.40;;;30.10;99.90;;;;;;5079831;28;20212;-56
2022/07/06 06:52:26;;;;;;;3.00;2.72;;;30.20;99.90;;;;;;5085492;28;20204;-56
2022/07/06 06:54:53;;;;;;;3.60;3.33;;;30.20;99.90;;;;;;5084320;28;20220;-57
2022/07/06 06:57:20;;;;;;;2.75;2.45;;;29.80;99.90;;;;;;5078442;28;20197;-56
2022/07/06 06:59:47;;;;;;;2.88;2.67;;;30.20;99.90;;;;;;5083915;28;20203;-56
2022/07/06 07:02:16;;;;;;;2.33;2.17;;;30.70;99.90;;;;;;5084262;28;20246;-56
2022/07/06 07:04:43;;;;;;;2.97;2.78;;;30.30;99.90;;;;;;5100090;22;20746;-50
2022/07/06 07:07:10;;;;;;;3.08;2.55;;;29.80;99.90;;;;;;5027354;28;20695;-50
2022/07/06 07:09:37;;;;;;;2.97;2.38;;;29.40;99.90;;;;;;5015592;28;20222;-50
2022/07/06 07:12:04;;;;;;;3.75;2.47;;;29.70;99.90;;;;;;5011648;28;20844;-50
2022/07/06 07:14:31;;;;;;;2.70;2.50;;;30.30;99.90;;;;;;5012176;28;20199;-50
2022/07/06 07:16:59;;;;;;;2.92;1.77;;;30.50;99.90;;;;;;5020899;28;20207;-50
2022/07/06 07:19:27;;;;;;;2.08;1.98;;;30.80;99.90;;;;;;5010676;28;20254;-50
2022/07/06 07:21:54;;;;;;;1.77;1.67;;;30.70;99.90;;;;;;5010118;28;20755;-50
2022/07/06 07:24:21;;;;;;;2.47;1.83;;;30.20;99.90;;;;;;5012025;28;20269;-50
2022/07/06 07:26:48;;;;;;;2.85;2.30;;;29.50;99.90;;;;;;5017501;28;20222;-50
2022/07/06 07:29:15;;;;;;;2.67;2.58;;;28.50;99.90;;;;;;5010801;28;20204;-50
2022/07/06 07:31:42;;;;;;;3.63;2.42;;;28.90;99.90;;;;;;5009899;28;20211;-50
2022/07/06 07:34:09;;;;;;;2.83;2.63;;;28.00;99.90;;;;;;5027116;28;20195;-50
2022/07/06 07:36:37;;;;;;;2.22;2.22;;;28.10;99.90;;;;;;5018699;28;20697;-50
2022/07/06 07:39:04;;;;;;;2.92;2.72;;;28.70;99.90;;;;;;5030734;28;20591;-50
2022/07/06 07:41:32;;;;;;;2.88;2.15;;;29.40;99.90;;;;;;5028808;28;20257;-50
2022/07/06 07:43:59;;;;;;;4.85;2.08;;;29.30;99.90;;;;;;5030833;28;20253;-50
2022/07/06 07:46:26;;;;;;;2.47;2.38;;;30.00;99.90;;;;;;5026688;28;20226;-50
2022/07/06 07:48:53;;;;;;;2.33;2.15;;;30.60;99.90;;;;;;5027394;28;20700;-50
2022/07/06 07:51:20;;;;;;;2.67;2.47;;;30.50;99.90;;;;;;5027650;28;20273;-50
2022/07/06 07:53:48;;;;;;;1.83;1.83;;;30.10;99.90;;;;;;5030803;28;20620;-50
2022/07/06 07:56:15;;;;;;;2.35;1.80;;;30.50;99.90;;;;;;5027753;28;20219;-50
2022/07/06 07:58:42;;;;;;;1.80;1.70;;;30.90;99.90;;;;;;5031402;28;20234;-50
2022/07/06 08:01:10;;;;;;;2.55;2.22;;;30.70;99.90;;;;;;5033718;28;20241;-50
2022/07/06 08:03:37;;;;;;;2.38;2.05;;;30.10;99.90;;;;;;5034106;28;20203;-50
2022/07/06 08:06:04;;;;;;;2.00;2.00;;;29.60;99.90;;;;;;5032557;28;20238;-50
2022/07/06 08:08:31;;;;;;;2.75;2.55;;;30.20;99.90;;;;;;5034046;28;20245;-50
2022/07/06 08:11:00;;;;;;;1.80;1.70;;;30.10;99.90;;;;;;5034219;28;20309;-50
2022/07/06 08:13:27;;;;;;;2.28;2.28;;;30.90;99.90;;;;;;5032740;28;20198;-50
2022/07/06 08:15:54;;;;;;;2.70;1.85;;;31.10;99.90;;;;;;5031973;28;20250;-50
2022/07/06 08:18:21;;;;;;;2.17;2.08;;;31.10;99.90;;;;;;5031852;28;20202;-50
2022/07/06 08:20:48;;;;;;;3.67;2.67;;;31.50;99.90;;;;;;5033761;28;20226;-50
2022/07/06 08:23:15;;;;;;;1.90;1.77;;;32.20;99.90;;;;;;5033248;28;20230;-51
2022/07/06 08:25:42;;;;;;;2.60;2.40;;;32.60;99.90;;;;;;5032672;28;20668;-50
2022/07/06 08:28:10;;;;;;;2.53;2.17;;;32.90;99.90;;;;;;5025353;28;21975;-51
2022/07/06 08:30:37;;;;;;;4.55;3.72;;;32.10;99.90;;;;;;5035225;28;20252;-50
2022/07/06 08:33:04;;;;;;;3.40;3.05;;;31.20;99.90;;;;;;5033207;28;20206;-50
2022/07/06 08:35:31;;;;;;;9.43;3.67;;;30.50;99.90;;;;;;5032408;28;20274;-50
2022/07/06 08:37:59;;;;;;;2.63;2.38;;;29.90;99.90;;;;;;5023475;28;20207;-50
2022/07/06 08:40:30;;;;;;;3.20;2.95;;;29.30;99.90;;;;;;5032575;28;20230;-50
2022/07/06 08:42:58;;;;;;;2.40;2.22;;;29.00;99.90;;;;;;5032570;28;20742;-50
2022/07/06 08:45:27;;;;;;;3.15;3.03;;;28.80;99.90;;;;;;5032901;28;20222;-49
2022/07/06 08:47:55;;;;;;;4.05;3.20;;;29.40;99.90;;;;;;5023067;28;20202;-50
2022/07/06 08:50:23;;;;;;;4.88;3.55;;;29.40;99.90;;;;;;5033546;28;20623;-50
2022/07/06 08:52:51;;;;;;;4.13;2.63;;;29.40;99.90;;;;;;5032812;28;20647;-50
2022/07/06 08:55:18;;;;;;;2.80;2.63;;;29.60;99.90;;;;;;5033586;28;20642;-50
2022/07/06 08:57:47;;;;;;;4.35;2.95;;;30.10;99.90;;;;;;5030181;28;20238;-50
2022/07/06 09:00:15;;;;;;;5.28;2.50;;;30.50;99.90;;;;;;5025529;28;20203;-50
2022/07/06 09:02:44;;;;;;;2.55;2.45;;;30.90;99.90;;;;;;5012656;28;20243;-50
2022/07/06 09:05:15;;;;;;;2.63;2.42;;;31.20;99.90;;;;;;5013247;28;20235;-50
2022/07/06 09:07:43;;;;;;;2.97;2.78;;;30.70;99.90;;;;;;5020488;28;20767;-50
2022/07/06 09:10:10;;;;;;;4.22;2.92;;;30.60;99.90;;;;;;5028492;28;20281;-50
2022/07/06 09:12:37;;;;;;;4.18;3.78;;;30.10;99.90;;;;;;5029761;28;20250;-50
2022/07/06 09:15:05;;;;;;;3.53;3.03;;;29.60;99.90;;;;;;5032837;28;20784;-50
2022/07/06 09:17:32;;;;;;;2.63;2.42;;;29.10;99.90;;;;;;5027432;28;20199;-50
2022/07/06 09:20:00;;;;;;;3.42;3.03;;;29.50;99.90;;;;;;5022188;28;20365;-50
2022/07/06 09:22:31;;;;;;;3.20;2.97;;;29.60;99.90;;;;;;5012090;28;20207;-50
2022/07/06 09:25:04;;;;;;;2.17;2.17;;;29.70;99.90;;;;;;5024627;28;20693;-50
2022/07/06 09:27:32;;;;;;;2.15;2.13;;;30.60;99.90;;;;;;5021678;28;20289;-50
2022/07/06 09:30:02;;;;;;;2.35;2.35;;;30.90;99.90;;;;;;5024226;28;20195;-50
2022/07/06 09:32:29;;;;;;;3.17;2.97;;;31.40;99.90;;;;;;5023518;28;20241;-50
2022/07/06 09:34:56;;;;;;;2.90;2.80;;;31.40;99.90;;;;;;5021548;28;20338;-50
2022/07/06 09:37:24;;;;;;;3.35;2.92;;;31.50;99.90;;;;;;5016744;28;20199;-50
2022/07/06 09:39:51;;;;;;;2.75;2.53;;;31.40;99.90;;;;;;5014652;28;20230;-50
2022/07/06 09:42:26;;;;;;;3.22;2.92;;;31.00;99.90;;;;;;5011954;28;20195;-50
2022/07/06 09:44:53;;;;;;;2.75;2.58;;;30.90;99.90;;;;;;5012038;28;20218;-50
2022/07/06 09:47:21;;;;;;;2.25;2.15;;;30.60;99.90;;;;;;5018470;28;20744;-50
2022/07/06 09:49:49;;;;;;;2.05;1.98;;;31.20;99.90;;;;;;5027755;28;20194;-50
2022/07/06 09:52:16;;;;;;;2.03;1.80;;;31.30;99.90;;;;;;5030067;28;20272;-50
2022/07/06 09:54:50;;;;;;;2.20;2.10;;;31.40;99.90;;;;;;5018379;28;20249;-50
2022/07/06 09:57:17;;;;;;;2.50;2.40;;;31.50;99.90;;;;;;5019948;28;20200;-50
2022/07/06 09:59:51;;;;;;;2.15;1.60;;;31.40;99.90;;;;;;5028494;28;20720;-50
2022/07/06 10:02:18;;;;;;;2.08;1.88;;;31.50;99.90;;;;;;5029228;28;20673;-50
2022/07/06 10:04:46;;;;;;;2.58;2.55;;;31.70;99.90;;;;;;5030921;28;20202;-50
2022/07/06 10:07:14;;;;;;;2.15;1.95;;;31.90;97.60;;;;;;5027049;28;20245;-49
2022/07/06 10:09:42;;;;;;;1.88;1.88;;;32.00;97.90;;;;;;5020359;28;20258;-50
2022/07/06 10:12:13;;;;;;;4.53;2.05;;;32.10;97.40;;;;;;5030079;28;20280;-50
2022/07/06 10:14:41;;;;;;;2.30;2.13;;;32.10;98.90;;;;;;5030745;28;20260;-50
2022/07/06 10:17:09;;;;;;;2.72;2.55;;;31.40;98.60;;;;;;5028994;28;20687;-50
2022/07/06 10:19:37;;;;;;;2.22;2.22;;;30.70;99.00;;;;;;5031265;28;20202;-49
2022/07/06 10:22:05;;;;;;;2.90;2.25;;;30.20;99.90;;;;;;5030191;28;20198;-50
2022/07/06 10:24:34;;;;;;;2.55;2.33;;;29.80;99.90;;;;;;5031089;28;20210;-50
2022/07/06 10:27:01;;;;;;;3.45;2.50;;;29.80;99.90;;;;;;5026749;28;20206;-50
2022/07/06 10:29:31;;;;;;;2.15;1.85;;;30.30;99.70;;;;;;5034099;28;20650;-50
2022/07/06 10:31:58;;;;;;;2.90;2.22;;;30.70;98.50;;;;;;5031119;28;20301;-50
2022/07/06 10:34:26;;;;;;;2.97;1.95;;;30.20;99.90;;;;;;5030450;28;20202;-50
2022/07/06 10:36:54;;;;;;;2.65;2.45;;;29.00;99.90;;;;;;5023481;28;20272;-50
2022/07/06 10:42:49;;;;;;;1.92;1.85;;;28.30;99.90;;;;;;5015967;28;20460;-49
2022/07/06 10:45:22;;;;;;;1.70;1.60;;;28.60;99.90;;;;;;5030194;28;20619;-49
2022/07/06 10:48:09;;;;;;;2.42;2.22;;;28.80;99.90;;;;;;5013781;28;20238;-50
2022/07/06 10:50:36;;;;;;;1.65;1.55;;;29.00;99.90;;;;;;5011646;28;20262;-50
2022/07/06 10:53:10;;;;;;;2.38;1.75;;;28.70;99.90;;;;;;5010798;28;20227;-49
2022/07/06 10:55:41;;;;;;;1.60;1.55;;;28.80;99.90;;;;;;5012217;28;20223;-49
2022/07/06 10:58:08;;;;;;;1.77;1.67;;;29.00;97.90;;;;;;5028985;28;20634;-50
2022/07/06 11:01:00;;;;;;;1.55;1.25;;;29.20;98.90;;;;;;5031100;28;20198;-49
2022/07/06 11:03:35;;;;;;;2.50;1.63;;;28.90;97.50;;;;;;5014166;28;20686;-49
2022/07/06 11:06:07;;;;;;;3.97;1.50;;;28.10;99.70;;;;;;5025118;28;20264;-49
2022/07/06 11:09:01;;;;;;;1.85;1.45;;;27.90;99.90;;;;;;5025733;28;20207;-49
2022/07/06 11:11:41;;;;;;;2.08;1.98;;;28.00;99.80;;;;;;5011087;28;20289;-49
2022/07/06 11:14:10;;;;;;;1.20;1.20;;;28.00;98.90;;;;;;5024882;28;20304;-50
2022/07/06 11:16:40;;;;;;;1.83;1.83;;;28.10;99.90;;;;;;5031187;28;20226;-49
2022/07/06 11:19:10;;;;;;;1.65;1.38;;;28.00;99.90;;;;;;5031147;28;20673;-49
2022/07/06 11:21:45;;;;;;;2.00;1.60;;;27.70;99.90;;;;;;5030272;28;20194;-49
2022/07/06 11:24:13;;;;;;;3.00;1.90;;;27.60;99.90;;;;;;5018378;28;20285;-49
2022/07/06 11:26:43;;;;;;;2.00;1.53;;;27.30;99.90;;;;;;5025128;28;20254;-49
2022/07/06 11:29:12;;;;;;;1.42;1.40;;;27.10;99.90;;;;;;5023395;28;20284;-49
2022/07/06 11:31:42;;;;;;;2.00;1.90;;;26.90;99.90;;;;;;5032109;28;20253;-49
2022/07/06 11:34:11;;;;;;;1.53;1.40;;;26.80;99.90;;;;;;5034362;28;20208;-49
2022/07/06 11:36:39;;;;;;;1.55;1.55;;;26.70;99.90;;;;;;5022647;28;20223;-49
2022/07/06 11:39:06;;;;;;;1.77;1.63;;;26.60;99.90;;;;;;5034125;28;20672;-49
2022/07/06 11:41:33;;;;;;;1.63;1.63;;;26.60;99.90;;;;;;5034098;28;20672;-48
2022/07/06 11:44:01;;;;;;;2.33;1.30;;;26.60;99.90;;;;;;5031861;28;20261;-49
2022/07/06 11:46:30;;;;;;;1.20;1.20;;;26.60;99.90;;;;;;5027349;28;20231;-49
2022/07/06 11:48:59;;;;;;;1.87;1.77;;;26.60;99.90;;;;;;5028296;28;20207;-49
2022/07/06 11:51:27;;;;;;;1.37;1.37;;;26.20;99.90;;;;;;5053863;28;20279;-49
2022/07/06 11:53:56;;;;;;;1.73;1.73;;;26.40;99.80;;;;;;5054613;28;20221;-49
2022/07/06 11:56:26;;;;;;;1.83;1.83;;;26.40;99.90;;;;;;5034975;28;20277;-49
2022/07/06 11:58:54;;;;;;;3.50;1.40;;;26.40;99.90;;;;;;5031129;28;20820;-50
2022/07/06 12:01:23;;;;;;;1.17;1.15;;;26.50;97.70;;;;;;5025681;28;20665;-49
2022/07/06 12:03:51;;;;;;;0.90;0.90;;;26.50;99.90;;;;;;5032552;28;20195;-49
2022/07/06 12:06:21;;;;;;;1.38;0.93;;;26.60;99.90;;;;;;5024126;28;20234;-49
2022/07/06 12:08:50;;;;;;;1.03;0.93;;;26.60;95.90;;;;;;5025505;28;20207;-49
2022/07/06 12:11:25;;;;;;;0.93;0.93;;;26.50;94.90;;;;;;5022116;28;20245;-49
2022/07/06 12:13:54;;;;;;;3.23;0.87;;;26.50;99.90;;;;;;5033364;28;20225;-49
2022/07/06 12:16:23;;;;;;;1.70;1.00;;;26.60;99.70;;;;;;5027516;28;20609;-49
2022/07/06 12:18:51;;;;;;;0.80;0.80;;;26.50;99.90;;;;;;5019611;28;20195;-49
2022/07/06 12:21:21;;;;;;;1.20;0.70;;;26.30;94.90;;;;;;5015808;28;20683;-49
2022/07/06 12:23:50;;;;;;;1.30;1.03;;;26.30;96.10;;;;;;5021762;28;20203;-49
2022/07/06 12:26:19;;;;;;;1.40;1.13;;;26.30;98.60;;;;;;5026652;28;20272;-49
2022/07/06 12:28:48;;;;;;;2.17;1.00;;;26.10;95.70;;;;;;5033717;28;20245;-49
2022/07/06 12:31:33;;;;;;;1.30;0.90;;;25.90;99.90;;;;;;5033408;28;20210;-49
2022/07/06 12:34:00;;;;;;;1.30;1.00;;;25.80;99.10;;;;;;5030436;28;20218;-49
2022/07/06 12:36:29;;;;;;;3.10;1.33;;;25.60;97.70;;;;;;5027981;28;20309;-49
2022/07/06 12:38:56;;;;;;;1.57;1.07;;;25.60;97.60;;;;;;5033480;28;20261;-49
2022/07/06 12:41:31;;;;;;;1.63;1.10;;;25.70;98.10;;;;;;5033217;28;20206;-49
2022/07/06 12:44:07;;;;;;;1.20;1.10;;;25.50;98.50;;;;;;5032451;28;20213;-49
2022/07/06 12:46:36;;;;;;;2.30;1.00;;;25.50;99.90;;;;;;5033646;28;20229;-49
2022/07/06 12:49:11;;;;;;;1.00;0.90;;;25.60;98.80;;;;;;5033506;28;20257;-49
2022/07/06 12:52:11;;;;;;;1.13;0.80;;;25.60;96.80;;;;;;5032367;28;20622;-49
2022/07/06 12:54:42;;;;;;;1.00;1.00;;;25.60;96.30;;;;;;4992138;28;20203;-49
2022/07/06 12:57:13;;;;;;;2.33;1.00;;;25.50;95.30;;;;;;5033332;28;20213;-49
2022/07/06 12:59:42;;;;;;;0.80;0.80;;;25.50;97.40;;;;;;5033642;28;20639;-49
2022/07/06 13:02:10;;;;;;;1.30;0.80;;;25.70;96.80;;;;;;5028176;28;20286;-48